sensor_id;sensor_type;location;lat;lon;timestamp;pressure;altitude;pressure_sealevel;temperature;humidity
57094;BME280;42970;50.996;3.706;2023-06-10T00:00:02;47181.91;;;-146.65;42.27
57094;BME280;42970;50.996;3.706;2023-06-10T00:02:30;47181.91;;;-146.65;42.27
57094;BME280;42970;50.996;3.706;2023-06-10T00:04:56;47179.91;;;-146.65;42.32
57094;BME280;42970;50.996;3.706;2023-06-10T00:07:22;47181.91;;;-146.65;42.54
57094;BME280;42970;50.996;3.706;2023-06-10T00:09:47;47177.91;;;-146.65;42.49
57094;BME280;42970;50.996;3.706;2023-06-10T00:12:12;47183.91;;;-146.65;42.75
57094;BME280;42970;50.996;3.706;2023-06-10T00:14:38;47183.91;;;-146.65;42.54
57094;BME280;42970;50.996;3.706;2023-06-10T00:17:04;47185.91;;;-146.65;42.55
57094;BME280;42970;50.996;3.706;2023-06-10T00:19:29;47181.91;;;-146.65;42.83
57094;BME280;42970;50.996;3.706;2023-06-10T00:21:55;47181.91;;;-146.65;42.90
57094;BME280;42970;50.996;3.706;2023-06-10T00:24:21;47183.91;;;-146.65;42.85
57094;BME280;42970;50.996;3.706;2023-06-10T00:26:47;47187.91;;;-146.65;42.98
57094;BME280;42970;50.996;3.706;2023-06-10T00:29:12;47183.91;;;-146.65;42.96
57094;BME280;42970;50.996;3.706;2023-06-10T00:31:38;47181.91;;;-146.65;43.46
57094;BME280;42970;50.996;3.706;2023-06-10T00:34:04;47179.91;;;-146.65;43.20
57094;BME280;42970;50.996;3.706;2023-06-10T00:36:29;47177.91;;;-146.65;43.42
57094;BME280;42970;50.996;3.706;2023-06-10T00:38:55;47181.91;;;-146.65;43.54
57094;BME280;42970;50.996;3.706;2023-06-10T00:41:20;47175.91;;;-146.65;43.65
57094;BME280;42970;50.996;3.706;2023-06-10T00:43:46;47183.91;;;-146.65;43.74
57094;BME280;42970;50.996;3.706;2023-06-10T00:46:11;47183.91;;;-146.65;43.83
57094;BME280;42970;50.996;3.706;2023-06-10T00:48:37;47181.91;;;-146.65;43.63
57094;BME280;42970;50.996;3.706;2023-06-10T00:51:04;47181.91;;;-146.65;43.88
57094;BME280;42970;50.996;3.706;2023-06-10T00:53:30;47181.91;;;-146.65;43.84
57094;BME280;42970;50.996;3.706;2023-06-10T00:55:55;47177.91;;;-146.65;43.86
57094;BME280;42970;50.996;3.706;2023-06-10T00:58:22;47187.91;;;-146.65;44.25
57094;BME280;42970;50.996;3.706;2023-06-10T01:00:47;47185.91;;;-146.65;44.06
57094;BME280;42970;50.996;3.706;2023-06-10T01:03:13;47183.91;;;-146.65;44.14
57094;BME280;42970;50.996;3.706;2023-06-10T01:05:38;47179.91;;;-146.65;44.22
57094;BME280;42970;50.996;3.706;2023-06-10T01:08:09;47177.91;;;-146.65;44.02
57094;BME280;42970;50.996;3.706;2023-06-10T01:10:43;47181.91;;;-146.65;44.38
57094;BME280;42970;50.996;3.706;2023-06-10T01:13:12;47181.91;;;-146.65;44.45
57094;BME280;42970;50.996;3.706;2023-06-10T01:15:38;47183.91;;;-146.65;44.31
57094;BME280;42970;50.996;3.706;2023-06-10T01:18:08;47183.91;;;-146.65;44.19
57094;BME280;42970;50.996;3.706;2023-06-10T01:20:36;47183.91;;;-146.65;44.54
57094;BME280;42970;50.996;3.706;2023-06-10T01:23:05;47177.91;;;-146.65;44.77
57094;BME280;42970;50.996;3.706;2023-06-10T01:25:30;47181.91;;;-146.65;44.58
57094;BME280;42970;50.996;3.706;2023-06-10T01:28:10;47181.91;;;-146.65;44.75
57094;BME280;42970;50.996;3.706;2023-06-10T01:30:40;47181.91;;;-146.65;44.39
57094;BME280;42970;50.996;3.706;2023-06-10T01:33:09;47179.91;;;-146.65;44.86
57094;BME280;42970;50.996;3.706;2023-06-10T01:35:34;47185.91;;;-146.65;45.12
57094;BME280;42970;50.996;3.706;2023-06-10T01:38:01;47181.91;;;-146.65;44.94
57094;BME280;42970;50.996;3.706;2023-06-10T01:40:27;47177.91;;;-146.65;45.13
57094;BME280;42970;50.996;3.706;2023-06-10T01:42:53;47175.91;;;-146.65;45.00
57094;BME280;42970;50.996;3.706;2023-06-10T01:45:19;47179.91;;;-146.65;45.04
57094;BME280;42970;50.996;3.706;2023-06-10T01:47:44;47179.91;;;-146.65;45.31
57094;BME280;42970;50.996;3.706;2023-06-10T01:50:10;47183.91;;;-146.65;45.53
57094;BME280;42970;50.996;3.706;2023-06-10T01:52:35;47181.91;;;-146.65;45.41
57094;BME280;42970;50.996;3.706;2023-06-10T01:55:00;47183.91;;;-146.65;45.12
57094;BME280;42970;50.996;3.706;2023-06-10T01:57:25;47183.91;;;-146.65;45.30
57094;BME280;42970;50.996;3.706;2023-06-10T01:59:51;47177.91;;;-146.65;45.80
57094;BME280;42970;50.996;3.706;2023-06-10T02:02:16;47179.91;;;-146.65;45.96
57094;BME280;42970;50.996;3.706;2023-06-10T02:04:41;47181.91;;;-146.65;46.17
57094;BME280;42970;50.996;3.706;2023-06-10T02:07:06;47179.91;;;-146.65;45.91
57094;BME280;42970;50.996;3.706;2023-06-10T02:09:32;47183.91;;;-146.65;46.40
57094;BME280;42970;50.996;3.706;2023-06-10T02:12:00;47181.91;;;-146.65;46.34
57094;BME280;42970;50.996;3.706;2023-06-10T02:14:25;47177.91;;;-146.65;45.96
57094;BME280;42970;50.996;3.706;2023-06-10T02:16:50;47179.91;;;-146.65;46.01
57094;BME280;42970;50.996;3.706;2023-06-10T02:19:16;47181.91;;;-146.65;46.62
57094;BME280;42970;50.996;3.706;2023-06-10T02:21:42;47181.91;;;-146.65;46.77
57094;BME280;42970;50.996;3.706;2023-06-10T02:24:07;47177.91;;;-146.65;46.86
57094;BME280;42970;50.996;3.706;2023-06-10T02:26:33;47183.91;;;-146.65;47.22
57094;BME280;42970;50.996;3.706;2023-06-10T02:28:58;47181.91;;;-146.65;47.35
57094;BME280;42970;50.996;3.706;2023-06-10T02:31:23;47179.91;;;-146.65;47.12
57094;BME280;42970;50.996;3.706;2023-06-10T02:33:50;47179.91;;;-146.65;47.14
57094;BME280;42970;50.996;3.706;2023-06-10T02:36:15;47181.91;;;-146.65;47.30
57094;BME280;42970;50.996;3.706;2023-06-10T02:38:41;47185.91;;;-146.65;47.20
57094;BME280;42970;50.996;3.706;2023-06-10T02:41:07;47179.91;;;-146.65;47.43
57094;BME280;42970;50.996;3.706;2023-06-10T02:43:32;47181.91;;;-146.65;47.52
57094;BME280;42970;50.996;3.706;2023-06-10T02:45:57;47185.91;;;-146.65;47.63
57094;BME280;42970;50.996;3.706;2023-06-10T02:48:26;47181.91;;;-146.65;47.83
57094;BME280;42970;50.996;3.706;2023-06-10T02:50:52;47179.91;;;-146.65;48.14
57094;BME280;42970;50.996;3.706;2023-06-10T02:53:17;47179.91;;;-146.65;48.72
57094;BME280;42970;50.996;3.706;2023-06-10T02:55:42;47181.91;;;-146.65;48.69
57094;BME280;42970;50.996;3.706;2023-06-10T02:58:08;47181.91;;;-146.65;48.55
57094;BME280;42970;50.996;3.706;2023-06-10T03:00:33;47181.91;;;-146.65;48.49
57094;BME280;42970;50.996;3.706;2023-06-10T03:02:58;47177.91;;;-146.65;48.83
57094;BME280;42970;50.996;3.706;2023-06-10T03:05:27;47183.91;;;-146.65;49.08
57094;BME280;42970;50.996;3.706;2023-06-10T03:07:53;47185.91;;;-146.65;49.04
57094;BME280;42970;50.996;3.706;2023-06-10T03:10:18;47183.91;;;-146.65;48.77
57094;BME280;42970;50.996;3.706;2023-06-10T03:12:43;47183.91;;;-146.65;49.14
57094;BME280;42970;50.996;3.706;2023-06-10T03:15:08;47179.91;;;-146.65;49.72
57094;BME280;42970;50.996;3.706;2023-06-10T03:17:34;47181.91;;;-146.65;49.69
57094;BME280;42970;50.996;3.706;2023-06-10T03:19:59;47179.91;;;-146.65;49.78
57094;BME280;42970;50.996;3.706;2023-06-10T03:22:25;47183.91;;;-146.65;50.09
57094;BME280;42970;50.996;3.706;2023-06-10T03:24:50;47179.91;;;-146.65;50.63
57094;BME280;42970;50.996;3.706;2023-06-10T03:27:16;47181.91;;;-146.65;50.29
57094;BME280;42970;50.996;3.706;2023-06-10T03:29:41;47175.91;;;-146.65;51.09
57094;BME280;42970;50.996;3.706;2023-06-10T03:32:07;47181.91;;;-146.65;50.86
57094;BME280;42970;50.996;3.706;2023-06-10T03:34:32;47181.91;;;-146.65;51.14
57094;BME280;42970;50.996;3.706;2023-06-10T03:36:57;47181.91;;;-146.65;50.92
57094;BME280;42970;50.996;3.706;2023-06-10T03:39:23;47181.91;;;-146.65;50.83
57094;BME280;42970;50.996;3.706;2023-06-10T03:41:49;47183.91;;;-146.65;51.40
57094;BME280;42970;50.996;3.706;2023-06-10T03:44:14;47183.91;;;-146.65;51.28
57094;BME280;42970;50.996;3.706;2023-06-10T03:46:40;47183.91;;;-146.65;51.84
57094;BME280;42970;50.996;3.706;2023-06-10T03:49:05;47183.91;;;-146.65;52.21
57094;BME280;42970;50.996;3.706;2023-06-10T03:51:30;47177.91;;;-146.65;51.87
57094;BME280;42970;50.996;3.706;2023-06-10T03:53:56;47185.91;;;-146.65;51.89
57094;BME280;42970;50.996;3.706;2023-06-10T03:56:21;47183.91;;;-146.65;51.92
57094;BME280;42970;50.996;3.706;2023-06-10T03:58:46;47177.91;;;-146.65;52.26
57094;BME280;42970;50.996;3.706;2023-06-10T04:01:11;47181.91;;;-146.65;52.29
57094;BME280;42970;50.996;3.706;2023-06-10T04:03:38;47185.91;;;-146.65;52.03
57094;BME280;42970;50.996;3.706;2023-06-10T04:06:04;47177.91;;;-146.65;52.09
57094;BME280;42970;50.996;3.706;2023-06-10T04:08:30;47179.91;;;-146.65;52.99
57094;BME280;42970;50.996;3.706;2023-06-10T04:10:56;47175.91;;;-146.65;53.15
57094;BME280;42970;50.996;3.706;2023-06-10T04:13:21;47181.91;;;-146.65;53.26
57094;BME280;42970;50.996;3.706;2023-06-10T04:15:47;47181.91;;;-146.65;53.18
57094;BME280;42970;50.996;3.706;2023-06-10T04:18:12;47183.91;;;-146.65;53.07
57094;BME280;42970;50.996;3.706;2023-06-10T04:20:38;47181.91;;;-146.65;53.18
57094;BME280;42970;50.996;3.706;2023-06-10T04:23:03;47177.91;;;-146.65;53.72
57094;BME280;42970;50.996;3.706;2023-06-10T04:25:28;47179.91;;;-146.65;52.94
57094;BME280;42970;50.996;3.706;2023-06-10T04:27:54;47185.91;;;-146.65;53.28
57094;BME280;42970;50.996;3.706;2023-06-10T04:30:19;47181.91;;;-146.65;53.61
57094;BME280;42970;50.996;3.706;2023-06-10T04:32:44;47185.91;;;-146.65;53.54
57094;BME280;42970;50.996;3.706;2023-06-10T04:35:13;47183.91;;;-146.65;53.49
57094;BME280;42970;50.996;3.706;2023-06-10T04:37:39;47181.91;;;-146.65;53.43
57094;BME280;42970;50.996;3.706;2023-06-10T04:40:04;47177.91;;;-146.65;53.47
57094;BME280;42970;50.996;3.706;2023-06-10T04:42:30;47185.91;;;-146.65;52.89
57094;BME280;42970;50.996;3.706;2023-06-10T04:44:56;47179.91;;;-146.65;53.59
57094;BME280;42970;50.996;3.706;2023-06-10T04:47:21;47185.91;;;-146.65;54.13
57094;BME280;42970;50.996;3.706;2023-06-10T04:49:46;47177.91;;;-146.65;53.74
57094;BME280;42970;50.996;3.706;2023-06-10T04:52:11;47179.91;;;-146.65;53.58
57094;BME280;42970;50.996;3.706;2023-06-10T04:54:37;47179.91;;;-146.65;53.35
57094;BME280;42970;50.996;3.706;2023-06-10T04:57:03;47177.91;;;-146.65;53.93
57094;BME280;42970;50.996;3.706;2023-06-10T04:59:28;47183.91;;;-146.65;53.68
57094;BME280;42970;50.996;3.706;2023-06-10T05:01:55;47179.91;;;-146.65;53.62
57094;BME280;42970;50.996;3.706;2023-06-10T05:04:20;47181.91;;;-146.65;53.47
57094;BME280;42970;50.996;3.706;2023-06-10T05:06:45;47179.91;;;-146.65;53.04
57094;BME280;42970;50.996;3.706;2023-06-10T05:09:11;47181.91;;;-146.65;53.63
57094;BME280;42970;50.996;3.706;2023-06-10T05:11:36;47181.91;;;-146.65;53.16
57094;BME280;42970;50.996;3.706;2023-06-10T05:14:01;47179.91;;;-146.65;53.12
57094;BME280;42970;50.996;3.706;2023-06-10T05:16:26;47181.91;;;-146.65;53.23
57094;BME280;42970;50.996;3.706;2023-06-10T05:18:52;47175.91;;;-146.65;52.71
57094;BME280;42970;50.996;3.706;2023-06-10T05:21:18;47181.91;;;-146.65;53.06
57094;BME280;42970;50.996;3.706;2023-06-10T05:23:43;47185.91;;;-146.65;52.69
57094;BME280;42970;50.996;3.706;2023-06-10T05:26:08;47179.91;;;-146.65;53.21
57094;BME280;42970;50.996;3.706;2023-06-10T05:28:34;47181.91;;;-146.65;52.72
57094;BME280;42970;50.996;3.706;2023-06-10T05:30:59;47185.91;;;-146.65;52.28
57094;BME280;42970;50.996;3.706;2023-06-10T05:33:24;47177.91;;;-146.65;52.38
57094;BME280;42970;50.996;3.706;2023-06-10T05:35:49;47179.91;;;-146.65;52.31
57094;BME280;42970;50.996;3.706;2023-06-10T05:38:15;47179.91;;;-146.65;50.74
57094;BME280;42970;50.996;3.706;2023-06-10T05:40:40;47183.91;;;-146.65;51.23
57094;BME280;42970;50.996;3.706;2023-06-10T05:43:05;47179.91;;;-146.65;51.46
57094;BME280;42970;50.996;3.706;2023-06-10T05:45:31;47179.91;;;-146.65;51.26
57094;BME280;42970;50.996;3.706;2023-06-10T05:47:56;47175.91;;;-146.65;51.22
57094;BME280;42970;50.996;3.706;2023-06-10T05:50:24;47181.91;;;-146.65;51.38
57094;BME280;42970;50.996;3.706;2023-06-10T05:52:49;47181.91;;;-146.65;50.19
57094;BME280;42970;50.996;3.706;2023-06-10T05:55:14;47181.91;;;-146.65;50.76
57094;BME280;42970;50.996;3.706;2023-06-10T05:57:41;47179.91;;;-146.65;50.76
57094;BME280;42970;50.996;3.706;2023-06-10T06:00:06;47177.91;;;-146.65;49.88
57094;BME280;42970;50.996;3.706;2023-06-10T06:02:32;47183.91;;;-146.65;49.68
57094;BME280;42970;50.996;3.706;2023-06-10T06:04:57;47177.91;;;-146.65;49.45
57094;BME280;42970;50.996;3.706;2023-06-10T06:07:23;47181.91;;;-146.65;49.56
57094;BME280;42970;50.996;3.706;2023-06-10T06:09:48;47181.91;;;-146.65;49.30
57094;BME280;42970;50.996;3.706;2023-06-10T06:12:13;47183.91;;;-146.65;49.35
57094;BME280;42970;50.996;3.706;2023-06-10T06:14:39;47183.91;;;-146.65;49.20
57094;BME280;42970;50.996;3.706;2023-06-10T06:17:05;47185.91;;;-146.65;48.86
57094;BME280;42970;50.996;3.706;2023-06-10T06:19:31;47185.91;;;-146.65;48.14
57094;BME280;42970;50.996;3.706;2023-06-10T06:21:56;47179.91;;;-146.65;48.27
57094;BME280;42970;50.996;3.706;2023-06-10T06:24:21;47181.91;;;-146.65;46.85
57094;BME280;42970;50.996;3.706;2023-06-10T06:26:46;47183.91;;;-146.65;47.23
57094;BME280;42970;50.996;3.706;2023-06-10T06:29:12;47181.91;;;-146.65;47.49
57094;BME280;42970;50.996;3.706;2023-06-10T06:31:37;47185.91;;;-146.65;47.49
57094;BME280;42970;50.996;3.706;2023-06-10T06:34:02;47183.91;;;-146.65;47.12
57094;BME280;42970;50.996;3.706;2023-06-10T06:36:28;47183.91;;;-146.65;47.02
57094;BME280;42970;50.996;3.706;2023-06-10T06:38:53;47179.91;;;-146.65;46.28
57094;BME280;42970;50.996;3.706;2023-06-10T06:41:18;47179.91;;;-146.65;45.59
57094;BME280;42970;50.996;3.706;2023-06-10T06:43:44;47181.91;;;-146.65;46.25
57094;BME280;42970;50.996;3.706;2023-06-10T06:46:10;47185.91;;;-146.65;45.84
57094;BME280;42970;50.996;3.706;2023-06-10T06:48:35;47183.91;;;-146.65;45.54
57094;BME280;42970;50.996;3.706;2023-06-10T06:51:00;47177.91;;;-146.65;44.79
57094;BME280;42970;50.996;3.706;2023-06-10T06:53:26;47185.91;;;-146.65;44.85
57094;BME280;42970;50.996;3.706;2023-06-10T06:55:51;47181.91;;;-146.65;44.81
57094;BME280;42970;50.996;3.706;2023-06-10T06:58:16;47183.91;;;-146.65;44.41
57094;BME280;42970;50.996;3.706;2023-06-10T07:00:42;47179.91;;;-146.65;43.80
57094;BME280;42970;50.996;3.706;2023-06-10T07:03:07;47179.91;;;-146.65;44.29
57094;BME280;42970;50.996;3.706;2023-06-10T07:05:32;47185.91;;;-146.65;44.46
57094;BME280;42970;50.996;3.706;2023-06-10T07:07:58;47181.91;;;-146.65;43.78
57094;BME280;42970;50.996;3.706;2023-06-10T07:10:26;47183.91;;;-146.65;43.96
57094;BME280;42970;50.996;3.706;2023-06-10T07:12:52;47185.91;;;-146.65;43.47
57094;BME280;42970;50.996;3.706;2023-06-10T07:15:17;47181.91;;;-146.65;43.19
57094;BME280;42970;50.996;3.706;2023-06-10T07:17:43;47183.91;;;-146.65;42.87
57094;BME280;42970;50.996;3.706;2023-06-10T07:20:08;47179.91;;;-146.65;43.41
57094;BME280;42970;50.996;3.706;2023-06-10T07:22:33;47185.91;;;-146.65;42.74
57094;BME280;42970;50.996;3.706;2023-06-10T07:24:59;47185.91;;;-146.65;43.00
57094;BME280;42970;50.996;3.706;2023-06-10T07:27:24;47177.91;;;-146.65;42.58
57094;BME280;42970;50.996;3.706;2023-06-10T07:29:50;47183.91;;;-146.65;41.66
57094;BME280;42970;50.996;3.706;2023-06-10T07:32:15;47181.91;;;-146.65;42.19
57094;BME280;42970;50.996;3.706;2023-06-10T07:34:41;47183.91;;;-146.65;41.98
57094;BME280;42970;50.996;3.706;2023-06-10T07:37:06;47181.91;;;-146.65;42.26
57094;BME280;42970;50.996;3.706;2023-06-10T07:39:31;47181.91;;;-146.65;41.51
57094;BME280;42970;50.996;3.706;2023-06-10T07:41:57;47185.91;;;-146.65;41.63
57094;BME280;42970;50.996;3.706;2023-06-10T07:44:22;47185.91;;;-146.65;41.30
57094;BME280;42970;50.996;3.706;2023-06-10T07:46:48;47183.91;;;-146.65;41.22
57094;BME280;42970;50.996;3.706;2023-06-10T07:49:13;47181.91;;;-146.65;41.35
57094;BME280;42970;50.996;3.706;2023-06-10T07:51:38;47183.91;;;-146.65;40.44
57094;BME280;42970;50.996;3.706;2023-06-10T07:54:04;47181.91;;;-146.65;40.86
57094;BME280;42970;50.996;3.706;2023-06-10T07:56:29;47181.91;;;-146.65;40.57
57094;BME280;42970;50.996;3.706;2023-06-10T07:58:54;47173.91;;;-146.65;40.57
57094;BME280;42970;50.996;3.706;2023-06-10T08:01:20;47183.91;;;-146.65;40.38
57094;BME280;42970;50.996;3.706;2023-06-10T08:03:45;47181.91;;;-146.65;39.62
57094;BME280;42970;50.996;3.706;2023-06-10T08:06:10;47183.91;;;-146.65;39.28
57094;BME280;42970;50.996;3.706;2023-06-10T08:08:37;47183.91;;;-146.65;39.71
57094;BME280;42970;50.996;3.706;2023-06-10T08:11:07;47183.91;;;-146.65;38.59
57094;BME280;42970;50.996;3.706;2023-06-10T08:13:32;47181.91;;;-146.65;38.77
57094;BME280;42970;50.996;3.706;2023-06-10T08:15:57;47185.91;;;-146.65;38.32
57094;BME280;42970;50.996;3.706;2023-06-10T08:18:23;47183.91;;;-146.65;38.05
57094;BME280;42970;50.996;3.706;2023-06-10T08:20:48;47181.91;;;-146.65;38.55
57094;BME280;42970;50.996;3.706;2023-06-10T08:23:13;47183.91;;;-146.65;37.92
57094;BME280;42970;50.996;3.706;2023-06-10T08:25:39;47185.91;;;-146.65;37.77
57094;BME280;42970;50.996;3.706;2023-06-10T08:28:04;47183.91;;;-146.65;37.50
57094;BME280;42970;50.996;3.706;2023-06-10T08:30:29;47179.91;;;-146.65;37.76
57094;BME280;42970;50.996;3.706;2023-06-10T08:32:55;47179.91;;;-146.65;36.43
57094;BME280;42970;50.996;3.706;2023-06-10T08:35:20;47181.91;;;-146.65;36.38
57094;BME280;42970;50.996;3.706;2023-06-10T08:37:46;47183.91;;;-146.65;36.44
57094;BME280;42970;50.996;3.706;2023-06-10T08:40:11;47181.91;;;-146.65;36.35
57094;BME280;42970;50.996;3.706;2023-06-10T08:45:02;47183.91;;;-146.65;37.18
57094;BME280;42970;50.996;3.706;2023-06-10T08:47:29;47183.91;;;-146.65;36.37
57094;BME280;42970;50.996;3.706;2023-06-10T08:49:56;47181.91;;;-146.65;36.35
57094;BME280;42970;50.996;3.706;2023-06-10T08:52:26;47183.91;;;-146.65;36.73
57094;BME280;42970;50.996;3.706;2023-06-10T08:54:56;47177.91;;;-146.65;36.36
57094;BME280;42970;50.996;3.706;2023-06-10T08:57:22;47181.91;;;-146.65;36.66
57094;BME280;42970;50.996;3.706;2023-06-10T08:59:48;47183.91;;;-146.65;36.22
57094;BME280;42970;50.996;3.706;2023-06-10T09:02:13;47185.91;;;-146.65;35.25
57094;BME280;42970;50.996;3.706;2023-06-10T09:04:40;47185.91;;;-146.65;35.71
57094;BME280;42970;50.996;3.706;2023-06-10T09:07:07;47181.91;;;-146.65;35.86
57094;BME280;42970;50.996;3.706;2023-06-10T09:09:32;47181.91;;;-146.65;34.32
57094;BME280;42970;50.996;3.706;2023-06-10T09:11:59;47181.91;;;-146.65;34.37
57094;BME280;42970;50.996;3.706;2023-06-10T09:14:25;47183.91;;;-146.65;33.74
57094;BME280;42970;50.996;3.706;2023-06-10T09:16:50;47183.91;;;-146.65;34.05
57094;BME280;42970;50.996;3.706;2023-06-10T09:19:16;47181.91;;;-146.65;33.47
57094;BME280;42970;50.996;3.706;2023-06-10T09:21:42;47181.91;;;-146.65;33.93
57094;BME280;42970;50.996;3.706;2023-06-10T09:24:07;47181.91;;;-146.65;33.82
57094;BME280;42970;50.996;3.706;2023-06-10T09:26:32;47183.91;;;-146.65;33.86
57094;BME280;42970;50.996;3.706;2023-06-10T09:29:07;47183.91;;;-146.65;33.56
57094;BME280;42970;50.996;3.706;2023-06-10T09:31:37;47181.91;;;-146.65;32.39
57094;BME280;42970;50.996;3.706;2023-06-10T09:36:32;47181.91;;;-146.65;32.99
57094;BME280;42970;50.996;3.706;2023-06-10T09:38:57;47181.91;;;-146.65;32.36
57094;BME280;42970;50.996;3.706;2023-06-10T09:41:25;47185.91;;;-146.65;33.87
57094;BME280;42970;50.996;3.706;2023-06-10T09:43:52;47181.91;;;-146.65;32.25
57094;BME280;42970;50.996;3.706;2023-06-10T09:46:17;47181.91;;;-146.65;32.80
57094;BME280;42970;50.996;3.706;2023-06-10T09:48:44;47183.91;;;-146.65;32.79
57094;BME280;42970;50.996;3.706;2023-06-10T09:51:09;47181.91;;;-146.65;32.52
57094;BME280;42970;50.996;3.706;2023-06-10T09:53:35;47185.91;;;-146.65;32.35
57094;BME280;42970;50.996;3.706;2023-06-10T09:56:00;47185.91;;;-146.65;32.30
57094;BME280;42970;50.996;3.706;2023-06-10T09:58:35;47183.91;;;-146.65;32.34
57094;BME280;42970;50.996;3.706;2023-06-10T10:01:04;47181.91;;;-146.65;31.47
57094;BME280;42970;50.996;3.706;2023-06-10T10:03:29;47181.91;;;-146.65;31.66
57094;BME280;42970;50.996;3.706;2023-06-10T10:05:58;47185.91;;;-146.65;31.29
57094;BME280;42970;50.996;3.706;2023-06-10T10:08:24;47183.91;;;-146.65;31.26
57094;BME280;42970;50.996;3.706;2023-06-10T10:10:50;47181.91;;;-146.65;31.29
57094;BME280;42970;50.996;3.706;2023-06-10T10:13:15;47185.91;;;-146.65;31.63
57094;BME280;42970;50.996;3.706;2023-06-10T10:15:41;47181.91;;;-146.65;30.90
57094;BME280;42970;50.996;3.706;2023-06-10T10:18:07;47181.91;;;-146.65;30.69
57094;BME280;42970;50.996;3.706;2023-06-10T10:20:34;47183.91;;;-146.65;30.70
57094;BME280;42970;50.996;3.706;2023-06-10T10:23:03;47181.91;;;-146.65;29.72
57094;BME280;42970;50.996;3.706;2023-06-10T10:25:38;47183.91;;;-146.65;29.86
57094;BME280;42970;50.996;3.706;2023-06-10T10:30:30;47181.91;;;-146.65;29.52
57094;BME280;42970;50.996;3.706;2023-06-10T10:35:44;47183.91;;;-146.65;30.08
57094;BME280;42970;50.996;3.706;2023-06-10T10:38:10;47181.91;;;-146.65;29.30
57094;BME280;42970;50.996;3.706;2023-06-10T10:40:36;47181.91;;;-146.65;28.72
57094;BME280;42970;50.996;3.706;2023-06-10T10:43:02;47231.97;;;-146.65;28.84
57094;BME280;42970;50.996;3.706;2023-06-10T10:45:28;47185.91;;;-146.65;28.29
57094;BME280;42970;50.996;3.706;2023-06-10T10:47:54;47183.91;;;-146.65;28.46
57094;BME280;42970;50.996;3.706;2023-06-10T10:50:22;47185.91;;;-146.65;27.83
57094;BME280;42970;50.996;3.706;2023-06-10T10:53:01;47185.91;;;-146.65;28.07
57094;BME280;42970;50.996;3.706;2023-06-10T10:55:27;47181.91;;;-146.65;27.78
57094;BME280;42970;50.996;3.706;2023-06-10T11:00:43;47181.91;;;-146.65;27.30
57094;BME280;42970;50.996;3.706;2023-06-10T11:03:13;47181.91;;;-146.65;27.05
57094;BME280;42970;50.996;3.706;2023-06-10T11:08:04;47181.91;;;-146.65;26.93
57094;BME280;42970;50.996;3.706;2023-06-10T11:10:34;47181.91;;;-146.65;27.22
57094;BME280;42970;50.996;3.706;2023-06-10T11:13:00;47185.91;;;-146.65;26.28
57094;BME280;42970;50.996;3.706;2023-06-10T11:15:28;47183.91;;;-146.65;26.11
57094;BME280;42970;50.996;3.706;2023-06-10T11:18:07;47181.91;;;-146.65;25.99
57094;BME280;42970;50.996;3.706;2023-06-10T11:20:50;47183.91;;;-146.65;25.81
57094;BME280;42970;50.996;3.706;2023-06-10T11:26:14;47181.91;;;-146.65;26.47
57094;BME280;42970;50.996;3.706;2023-06-10T11:28:40;47181.91;;;-146.65;26.41
57094;BME280;42970;50.996;3.706;2023-06-10T11:31:05;47183.91;;;-146.65;26.36
57094;BME280;42970;50.996;3.706;2023-06-10T11:33:31;47181.91;;;-146.65;26.71
57094;BME280;42970;50.996;3.706;2023-06-10T11:35:57;47183.91;;;-146.65;25.33
57094;BME280;42970;50.996;3.706;2023-06-10T11:38:23;47179.91;;;-146.65;26.71
57094;BME280;42970;50.996;3.706;2023-06-10T11:40:49;47183.91;;;-146.65;27.22
57094;BME280;42970;50.996;3.706;2023-06-10T11:43:15;47181.91;;;-146.65;27.75
57094;BME280;42970;50.996;3.706;2023-06-10T11:45:41;47183.91;;;-146.65;26.22
57094;BME280;42970;50.996;3.706;2023-06-10T11:48:07;47183.91;;;-146.65;26.11
57094;BME280;42970;50.996;3.706;2023-06-10T11:50:32;47183.91;;;-146.65;25.31
57094;BME280;42970;50.996;3.706;2023-06-10T11:52:58;47181.91;;;-146.65;24.98
57094;BME280;42970;50.996;3.706;2023-06-10T11:55:25;47181.91;;;-146.65;25.09
57094;BME280;42970;50.996;3.706;2023-06-10T11:57:50;47183.91;;;-146.65;25.71
57094;BME280;42970;50.996;3.706;2023-06-10T12:00:22;47181.91;;;-146.65;25.25
57094;BME280;42970;50.996;3.706;2023-06-10T12:02:54;47183.91;;;-146.65;25.54
57094;BME280;42970;50.996;3.706;2023-06-10T12:05:22;47185.91;;;-146.65;24.73
57094;BME280;42970;50.996;3.706;2023-06-10T12:07:47;47181.91;;;-146.65;24.53
57094;BME280;42970;50.996;3.706;2023-06-10T12:10:13;47185.91;;;-146.65;24.37
57094;BME280;42970;50.996;3.706;2023-06-10T12:12:38;47181.91;;;-146.65;25.02
57094;BME280;42970;50.996;3.706;2023-06-10T12:15:03;47183.91;;;-146.65;24.19
57094;BME280;42970;50.996;3.706;2023-06-10T12:19:56;47185.91;;;-146.65;24.54
57094;BME280;42970;50.996;3.706;2023-06-10T12:22:21;47185.91;;;-146.65;24.17
57094;BME280;42970;50.996;3.706;2023-06-10T12:25:02;47183.91;;;-146.65;23.95
57094;BME280;42970;50.996;3.706;2023-06-10T12:27:32;47183.91;;;-146.65;23.93
57094;BME280;42970;50.996;3.706;2023-06-10T12:29:59;47181.91;;;-146.65;24.01
57094;BME280;42970;50.996;3.706;2023-06-10T12:35:08;47183.91;;;-146.65;23.24
57094;BME280;42970;50.996;3.706;2023-06-10T12:37:34;47183.91;;;-146.65;23.83
57094;BME280;42970;50.996;3.706;2023-06-10T12:40:01;47181.91;;;-146.65;23.79
57094;BME280;42970;50.996;3.706;2023-06-10T12:42:31;47181.91;;;-146.65;23.60
57094;BME280;42970;50.996;3.706;2023-06-10T12:44:59;47181.91;;;-146.65;23.49
57094;BME280;42970;50.996;3.706;2023-06-10T12:47:34;47183.91;;;-146.65;23.79
57094;BME280;42970;50.996;3.706;2023-06-10T12:50:01;47185.91;;;-146.65;23.31
57094;BME280;42970;50.996;3.706;2023-06-10T12:52:27;47181.91;;;-146.65;22.85
57094;BME280;42970;50.996;3.706;2023-06-10T12:54:53;47181.91;;;-146.65;22.52
57094;BME280;42970;50.996;3.706;2023-06-10T12:57:20;47181.91;;;-146.65;22.47